sensor_id;sensor_type;location;lat;lon;timestamp;pressure;altitude;pressure_sealevel;temperature;humidity
44825;BME280;30542;47.928;2.138;2024-02-21T00:02:17;101429.81;;;20.42;47.32
44825;BME280;30542;47.928;2.138;2024-02-21T00:07:18;101429.47;;;20.39;47.42
44825;BME280;30542;47.928;2.138;2024-02-21T00:12:18;101420.06;;;20.36;47.40
44825;BME280;30542;47.928;2.138;2024-02-21T00:17:18;101410.41;;;20.35;47.44
44825;BME280;30542;47.928;2.138;2024-02-21T00:22:19;101399.16;;;20.33;47.59
44825;BME280;30542;47.928;2.138;2024-02-21T00:27:19;101380.00;;;20.24;47.44
44825;BME280;30542;47.928;2.138;2024-02-21T00:32:19;101397.19;;;20.28;47.64
44825;BME280;30542;47.928;2.138;2024-02-21T00:37:21;101381.38;;;20.27;47.56
44825;BME280;30542;47.928;2.138;2024-02-21T00:42:22;101370.56;;;20.22;47.52
44825;BME280;30542;47.928;2.138;2024-02-21T00:47:22;101381.63;;;20.25;47.62
44825;BME280;30542;47.928;2.138;2024-02-21T00:52:22;101369.78;;;20.21;47.45
44825;BME280;30542;47.928;2.138;2024-02-21T00:57:23;101364.66;;;20.20;47.52
44825;BME280;30542;47.928;2.138;2024-02-21T01:02:23;101340.25;;;20.16;47.68
44825;BME280;30542;47.928;2.138;2024-02-21T01:07:24;101338.88;;;20.14;47.65
44825;BME280;30542;47.928;2.138;2024-02-21T01:12:25;101318.44;;;20.07;47.52
44825;BME280;30542;47.928;2.138;2024-02-21T01:17:25;101311.56;;;20.11;47.44
44825;BME280;30542;47.928;2.138;2024-02-21T01:22:25;101317.13;;;20.10;47.57
44825;BME280;30542;47.928;2.138;2024-02-21T01:27:26;101318.44;;;20.07;47.45
44825;BME280;30542;47.928;2.138;2024-02-21T01:32:26;101305.28;;;20.06;47.47
44825;BME280;30542;47.928;2.138;2024-02-21T01:37:27;101272.31;;;20.00;47.47
44825;BME280;30542;47.928;2.138;2024-02-21T01:42:27;101275.72;;;19.96;47.32
44825;BME280;30542;47.928;2.138;2024-02-21T01:47:27;101276.25;;;19.98;47.26
44825;BME280;30542;47.928;2.138;2024-02-21T01:52:29;101266.63;;;19.97;47.31
44825;BME280;30542;47.928;2.138;2024-02-21T01:57:30;101259.88;;;19.94;47.48
44825;BME280;30542;47.928;2.138;2024-02-21T02:02:31;101259.06;;;19.94;47.49
44825;BME280;30542;47.928;2.138;2024-02-21T02:07:31;101250.72;;;19.90;47.52
44825;BME280;30542;47.928;2.138;2024-02-21T02:12:32;101244.00;;;19.88;47.53
44825;BME280;30542;47.928;2.138;2024-02-21T02:17:32;101255.75;;;19.86;47.62
44825;BME280;30542;47.928;2.138;2024-02-21T02:22:33;101256.78;;;19.85;47.47
44825;BME280;30542;47.928;2.138;2024-02-21T02:27:43;101244.72;;;19.83;47.66
44825;BME280;30542;47.928;2.138;2024-02-21T02:32:46;101236.13;;;19.81;47.30
44825;BME280;30542;47.928;2.138;2024-02-21T02:37:50;101206.63;;;19.76;47.23
44825;BME280;30542;47.928;2.138;2024-02-21T02:42:51;101203.50;;;19.79;47.78
44825;BME280;30542;47.928;2.138;2024-02-21T02:47:54;101227.56;;;19.79;47.51
44825;BME280;30542;47.928;2.138;2024-02-21T02:52:56;101199.16;;;19.78;47.31
44825;BME280;30542;47.928;2.138;2024-02-21T02:57:57;101190.59;;;19.76;47.37
44825;BME280;30542;47.928;2.138;2024-02-21T03:02:57;101176.44;;;19.75;47.24
44825;BME280;30542;47.928;2.138;2024-02-21T03:07:57;101154.72;;;19.72;47.32
44825;BME280;30542;47.928;2.138;2024-02-21T03:12:59;101152.50;;;19.69;47.43
44825;BME280;30542;47.928;2.138;2024-02-21T03:17:59;101159.72;;;19.68;47.36
44825;BME280;30542;47.928;2.138;2024-02-21T03:23:00;101164.25;;;19.68;47.42
44825;BME280;30542;47.928;2.138;2024-02-21T03:28:00;101153.81;;;19.66;47.46
44825;BME280;30542;47.928;2.138;2024-02-21T03:33:02;101146.03;;;19.65;47.27
44825;BME280;30542;47.928;2.138;2024-02-21T03:38:03;101147.09;;;19.64;47.33
44825;BME280;30542;47.928;2.138;2024-02-21T03:43:03;101138.47;;;19.61;47.06
44825;BME280;30542;47.928;2.138;2024-02-21T03:48:04;101114.22;;;19.63;47.13
44825;BME280;30542;47.928;2.138;2024-02-21T03:53:04;101110.81;;;19.68;47.20
44825;BME280;30542;47.928;2.138;2024-02-21T03:58:04;101109.19;;;19.67;47.05
44825;BME280;30542;47.928;2.138;2024-02-21T04:03:05;101115.44;;;19.72;47.35
44825;BME280;30542;47.928;2.138;2024-02-21T04:08:06;101095.97;;;19.77;47.01
44825;BME280;30542;47.928;2.138;2024-02-21T04:13:08;101078.66;;;19.79;47.22
44825;BME280;30542;47.928;2.138;2024-02-21T04:18:09;101047.78;;;19.89;46.67
44825;BME280;30542;47.928;2.138;2024-02-21T04:23:09;101062.59;;;19.96;46.96
44825;BME280;30542;47.928;2.138;2024-02-21T04:28:10;101082.50;;;20.05;46.90
44825;BME280;30542;47.928;2.138;2024-02-21T04:33:10;101074.06;;;20.14;46.59
44825;BME280;30542;47.928;2.138;2024-02-21T04:38:10;101083.28;;;20.23;46.53
44825;BME280;30542;47.928;2.138;2024-02-21T04:43:11;101069.44;;;20.26;46.48
44825;BME280;30542;47.928;2.138;2024-02-21T04:48:11;101068.75;;;20.35;46.36
44825;BME280;30542;47.928;2.138;2024-02-21T04:53:11;101071.50;;;20.41;46.18
44825;BME280;30542;47.928;2.138;2024-02-21T04:58:12;101075.06;;;20.46;45.73
44825;BME280;30542;47.928;2.138;2024-02-21T05:03:12;101066.56;;;20.49;45.76
44825;BME280;30542;47.928;2.138;2024-02-21T05:08:12;101064.75;;;20.55;46.05
44825;BME280;30542;47.928;2.138;2024-02-21T05:13:12;101064.00;;;20.59;45.78
44825;BME280;30542;47.928;2.138;2024-02-21T05:18:13;101053.59;;;20.63;45.84
44825;BME280;30542;47.928;2.138;2024-02-21T05:23:13;101039.47;;;20.68;45.84
44825;BME280;30542;47.928;2.138;2024-02-21T05:28:13;101030.94;;;20.71;45.83
44825;BME280;30542;47.928;2.138;2024-02-21T05:33:14;101019.75;;;20.74;46.13
44825;BME280;30542;47.928;2.138;2024-02-21T05:38:21;101011.44;;;20.75;46.03
44825;BME280;30542;47.928;2.138;2024-02-21T05:43:21;101005.84;;;20.77;45.94
44825;BME280;30542;47.928;2.138;2024-02-21T05:48:22;100990.88;;;20.81;46.62
44825;BME280;30542;47.928;2.138;2024-02-21T05:53:22;100990.94;;;20.86;47.30
44825;BME280;30542;47.928;2.138;2024-02-21T05:58:23;100987.22;;;20.87;47.57
44825;BME280;30542;47.928;2.138;2024-02-21T06:03:23;100985.88;;;20.90;48.06
44825;BME280;30542;47.928;2.138;2024-02-21T06:08:23;100978.69;;;20.90;46.88
44825;BME280;30542;47.928;2.138;2024-02-21T06:13:24;100952.91;;;20.84;47.19
44825;BME280;30542;47.928;2.138;2024-02-21T06:18:24;100960.97;;;20.89;47.36
44825;BME280;30542;47.928;2.138;2024-02-21T06:23:24;100968.81;;;20.96;47.25
44825;BME280;30542;47.928;2.138;2024-02-21T06:28:25;100956.22;;;20.96;46.91
44825;BME280;30542;47.928;2.138;2024-02-21T06:33:25;100944.44;;;20.97;46.87
44825;BME280;30542;47.928;2.138;2024-02-21T06:38:25;100955.16;;;20.97;46.71
44825;BME280;30542;47.928;2.138;2024-02-21T06:43:26;100947.69;;;20.99;46.61
44825;BME280;30542;47.928;2.138;2024-02-21T06:48:26;100933.22;;;21.00;46.48
44825;BME280;30542;47.928;2.138;2024-02-21T06:53:26;100932.97;;;21.02;46.31
44825;BME280;30542;47.928;2.138;2024-02-21T06:58:27;100926.78;;;21.01;46.18
44825;BME280;30542;47.928;2.138;2024-02-21T07:03:27;100925.19;;;21.00;46.36
44825;BME280;30542;47.928;2.138;2024-02-21T07:08:27;100921.94;;;20.98;46.47
44825;BME280;30542;47.928;2.138;2024-02-21T07:13:28;100917.13;;;20.95;46.76
44825;BME280;30542;47.928;2.138;2024-02-21T07:18:28;100907.44;;;20.94;46.91
44825;BME280;30542;47.928;2.138;2024-02-21T07:23:28;100906.91;;;20.92;46.90
44825;BME280;30542;47.928;2.138;2024-02-21T07:28:29;100900.50;;;20.93;47.74
44825;BME280;30542;47.928;2.138;2024-02-21T07:33:29;100907.22;;;20.96;47.96
44825;BME280;30542;47.928;2.138;2024-02-21T07:38:30;100897.84;;;20.98;48.29
44825;BME280;30542;47.928;2.138;2024-02-21T07:43:31;100898.94;;;21.02;48.40
44825;BME280;30542;47.928;2.138;2024-02-21T07:48:31;100899.25;;;21.06;48.42
44825;BME280;30542;47.928;2.138;2024-02-21T07:53:31;100889.91;;;21.08;48.30
44825;BME280;30542;47.928;2.138;2024-02-21T07:58:32;100884.28;;;21.10;48.38
44825;BME280;30542;47.928;2.138;2024-02-21T08:03:32;100881.34;;;21.12;48.36
44825;BME280;30542;47.928;2.138;2024-02-21T08:08:32;100876.81;;;21.12;48.20
44825;BME280;30542;47.928;2.138;2024-02-21T08:13:33;100871.19;;;21.14;48.63
44825;BME280;30542;47.928;2.138;2024-02-21T08:18:33;100856.72;;;21.15;48.11
44825;BME280;30542;47.928;2.138;2024-02-21T08:23:36;100840.09;;;21.13;48.12
44825;BME280;30542;47.928;2.138;2024-02-21T08:28:36;100839.06;;;21.19;47.94
44825;BME280;30542;47.928;2.138;2024-02-21T08:33:37;100839.06;;;21.19;47.90
44825;BME280;30542;47.928;2.138;2024-02-21T08:38:37;100834.53;;;21.19;47.69
44825;BME280;30542;47.928;2.138;2024-02-21T08:43:38;100817.38;;;21.20;47.71
44825;BME280;30542;47.928;2.138;2024-02-21T08:48:38;100818.47;;;21.19;47.71
44825;BME280;30542;47.928;2.138;2024-02-21T08:53:38;100818.19;;;21.21;47.47
44825;BME280;30542;47.928;2.138;2024-02-21T08:58:39;100821.41;;;21.23;47.62
44825;BME280;30542;47.928;2.138;2024-02-21T09:03:40;100816.03;;;21.23;47.34
44825;BME280;30542;47.928;2.138;2024-02-21T09:08:40;100820.59;;;21.22;47.50
44825;BME280;30542;47.928;2.138;2024-02-21T09:13:40;100827.31;;;21.25;47.29
44825;BME280;30542;47.928;2.138;2024-02-21T09:18:41;100805.88;;;21.25;47.32
44825;BME280;30542;47.928;2.138;2024-02-21T09:23:42;100802.13;;;21.26;47.14
44825;BME280;30542;47.928;2.138;2024-02-21T09:28:43;100784.97;;;21.22;47.21
44825;BME280;30542;47.928;2.138;2024-02-21T09:33:46;100782.56;;;21.25;47.32
44825;BME280;30542;47.928;2.138;2024-02-21T09:38:47;100751.50;;;21.24;47.09
44825;BME280;30542;47.928;2.138;2024-02-21T09:43:49;100768.09;;;21.26;47.07
44825;BME280;30542;47.928;2.138;2024-02-21T09:54:07;100771.31;;;21.23;46.82
44825;BME280;30542;47.928;2.138;2024-02-21T09:59:08;100769.47;;;21.24;47.00
44825;BME280;30542;47.928;2.138;2024-02-21T10:04:08;100766.22;;;21.27;47.12
44825;BME280;30542;47.928;2.138;2024-02-21T10:09:22;100757.41;;;21.26;46.96
44825;BME280;30542;47.928;2.138;2024-02-21T10:14:23;100749.34;;;21.26;47.00
44825;BME280;30542;47.928;2.138;2024-02-21T10:19:23;100731.41;;;21.27;47.06
44825;BME280;30542;47.928;2.138;2024-02-21T10:24:27;100719.63;;;21.28;46.83
44825;BME280;30542;47.928;2.138;2024-02-21T10:29:29;100723.91;;;21.29;46.99
44825;BME280;30542;47.928;2.138;2024-02-21T10:34:30;100717.75;;;21.28;47.04
44825;BME280;30542;47.928;2.138;2024-02-21T10:39:34;100697.13;;;21.29;46.87
44825;BME280;30542;47.928;2.138;2024-02-21T10:44:37;100678.38;;;21.29;46.76
44825;BME280;30542;47.928;2.138;2024-02-21T10:49:39;100681.06;;;21.29;46.79
44825;BME280;30542;47.928;2.138;2024-02-21T10:59:53;100664.97;;;21.29;46.78
44825;BME280;30542;47.928;2.138;2024-02-21T11:04:55;100643.28;;;21.30;46.73
44825;BME280;30542;47.928;2.138;2024-02-21T11:09:55;100618.34;;;21.30;46.72
44825;BME280;30542;47.928;2.138;2024-02-21T11:15:08;100627.19;;;21.30;46.77
44825;BME280;30542;47.928;2.138;2024-02-21T11:20:15;100611.91;;;21.31;46.76
44825;BME280;30542;47.928;2.138;2024-02-21T11:25:21;100617.56;;;21.29;46.72
44825;BME280;30542;47.928;2.138;2024-02-21T11:30:26;100595.84;;;21.31;46.73
44825;BME280;30542;47.928;2.138;2024-02-21T11:35:31;100587.81;;;21.31;46.54
44825;BME280;30542;47.928;2.138;2024-02-21T11:40:33;100578.75;;;21.32;46.62
44825;BME280;30542;47.928;2.138;2024-02-21T11:45:34;100561.81;;;21.31;46.65
44825;BME280;30542;47.928;2.138;2024-02-21T11:50:35;100547.63;;;21.31;46.58
44825;BME280;30542;47.928;2.138;2024-02-21T11:55:36;100534.22;;;21.31;46.49
44825;BME280;30542;47.928;2.138;2024-02-21T12:00:38;100523.50;;;21.31;46.26
44825;BME280;30542;47.928;2.138;2024-02-21T12:05:38;100512.78;;;21.31;46.39
44825;BME280;30542;47.928;2.138;2024-02-21T12:10:38;100496.72;;;21.31;46.34
44825;BME280;30542;47.928;2.138;2024-02-21T12:15:39;100482.31;;;21.32;46.39
44825;BME280;30542;47.928;2.138;2024-02-21T12:20:41;100469.72;;;21.32;46.53
44825;BME280;30542;47.928;2.138;2024-02-21T12:25:42;100464.34;;;21.32;46.46
44825;BME280;30542;47.928;2.138;2024-02-21T12:30:43;100404.88;;;21.00;46.30
44825;BME280;30542;47.928;2.138;2024-02-21T12:35:43;100445.59;;;21.32;46.47
44825;BME280;30542;47.928;2.138;2024-02-21T12:40:43;100430.53;;;21.31;46.28
44825;BME280;30542;47.928;2.138;2024-02-21T12:45:44;100428.94;;;21.30;46.19
44825;BME280;30542;47.928;2.138;2024-02-21T12:50:51;100413.94;;;21.29;46.15
44825;BME280;30542;47.928;2.138;2024-02-21T12:55:51;100411.25;;;21.29;46.25
44825;BME280;30542;47.928;2.138;2024-02-21T13:00:51;100395.19;;;21.29;46.22
44825;BME280;30542;47.928;2.138;2024-02-21T13:05:53;100376.44;;;21.29;46.49
44825;BME280;30542;47.928;2.138;2024-02-21T13:10:53;100362.25;;;21.29;46.12
44825;BME280;30542;47.928;2.138;2024-02-21T13:15:54;100362.25;;;21.29;46.24
44825;BME280;30542;47.928;2.138;2024-02-21T13:20:54;100346.16;;;21.29;45.99
44825;BME280;30542;47.928;2.138;2024-02-21T13:25:54;100347.25;;;21.28;46.26
44825;BME280;30542;47.928;2.138;2024-02-21T13:30:55;100341.59;;;21.29;45.98
44825;BME280;30542;47.928;2.138;2024-02-21T13:35:55;100328.50;;;21.28;46.04
44825;BME280;30542;47.928;2.138;2024-02-21T13:40:56;100331.19;;;21.28;45.98
44825;BME280;30542;47.928;2.138;2024-02-21T13:45:58;100306.53;;;21.26;46.00
44825;BME280;30542;47.928;2.138;2024-02-21T13:50:59;100305.44;;;21.27;46.03
44825;BME280;30542;47.928;2.138;2024-02-21T13:55:59;100304.38;;;21.28;46.04
44825;BME280;30542;47.928;2.138;2024-02-21T14:01:00;100300.09;;;21.27;45.88
44825;BME280;30542;47.928;2.138;2024-02-21T14:06:01;100282.41;;;21.26;45.95
44825;BME280;30542;47.928;2.138;2024-02-21T14:11:01;100276.78;;;21.27;45.74
44825;BME280;30542;47.928;2.138;2024-02-21T14:16:02;100249.97;;;21.27;45.86
44825;BME280;30542;47.928;2.138;2024-02-21T14:21:02;100241.94;;;21.27;45.86
44825;BME280;30542;47.928;2.138;2024-02-21T14:26:03;100230.44;;;21.27;45.92
44825;BME280;30542;47.928;2.138;2024-02-21T14:31:04;100221.59;;;21.26;45.93
44825;BME280;30542;47.928;2.138;2024-02-21T14:36:06;100213.56;;;21.26;45.81
44825;BME280;30542;47.928;2.138;2024-02-21T14:41:07;100194.00;;;21.26;45.88
44825;BME280;30542;47.928;2.138;2024-02-21T14:46:08;100183.28;;;21.26;45.69
44825;BME280;30542;47.928;2.138;2024-02-21T14:51:08;100177.44;;;21.24;45.94
44825;BME280;30542;47.928;2.138;2024-02-21T14:56:15;100186.78;;;21.26;45.99
44825;BME280;30542;47.928;2.138;2024-02-21T15:01:16;100176.34;;;21.25;45.79
44825;BME280;30542;47.928;2.138;2024-02-21T15:06:16;100175.25;;;21.26;45.76
44825;BME280;30542;47.928;2.138;2024-02-21T15:11:17;100163.47;;;21.27;45.71
44825;BME280;30542;47.928;2.138;2024-02-21T15:16:18;100148.47;;;21.26;45.63
44825;BME280;30542;47.928;2.138;2024-02-21T15:21:18;100136.97;;;21.25;45.75
44825;BME280;30542;47.928;2.138;2024-02-21T15:26:19;100127.03;;;21.26;45.46
44825;BME280;30542;47.928;2.138;2024-02-21T15:31:20;100121.69;;;21.26;45.53
44825;BME280;30542;47.928;2.138;2024-02-21T15:36:22;100107.78;;;21.24;45.56
44825;BME280;30542;47.928;2.138;2024-02-21T15:41:23;100096.00;;;21.25;45.50
44825;BME280;30542;47.928;2.138;2024-02-21T15:46:23;100104.03;;;21.25;45.47
44825;BME280;30542;47.928;2.138;2024-02-21T15:51:23;100088.75;;;21.25;45.64
44825;BME280;30542;47.928;2.138;2024-02-21T15:56:24;100081.50;;;21.26;45.58
44825;BME280;30542;47.928;2.138;2024-02-21T16:01:24;100070.00;;;21.25;45.65
44825;BME280;30542;47.928;2.138;2024-02-21T16:06:24;100065.44;;;21.26;45.52
44825;BME280;30542;47.928;2.138;2024-02-21T16:11:25;100057.41;;;21.26;45.36
44825;BME280;30542;47.928;2.138;2024-02-21T16:16:25;100050.44;;;21.25;45.46
44825;BME280;30542;47.928;2.138;2024-02-21T16:21:26;100047.47;;;21.26;45.46
44825;BME280;30542;47.928;2.138;2024-02-21T16:26:27;100031.75;;;21.20;45.29
44825;BME280;30542;47.928;2.138;2024-02-21T16:31:27;100032.50;;;21.25;45.31
44825;BME280;30542;47.928;2.138;2024-02-21T16:36:27;100031.41;;;21.26;45.67
44825;BME280;30542;47.928;2.138;2024-02-21T16:41:27;100013.69;;;21.30;46.46
44825;BME280;30542;47.928;2.138;2024-02-21T16:46:28;100020.41;;;21.33;47.23
44825;BME280;30542;47.928;2.138;2024-02-21T16:51:28;100016.16;;;21.32;47.92
44825;BME280;30542;47.928;2.138;2024-02-21T16:56:29;100018.81;;;21.32;48.62
44825;BME280;30542;47.928;2.138;2024-02-21T17:01:34;100003.78;;;21.31;48.96
44825;BME280;30542;47.928;2.138;2024-02-21T17:06:39;99994.94;;;21.30;49.15
44825;BME280;30542;47.928;2.138;2024-02-21T17:11:39;99979.66;;;21.31;49.75
44825;BME280;30542;47.928;2.138;2024-02-21T17:16:40;99947.06;;;21.24;50.18
44825;BME280;30542;47.928;2.138;2024-02-21T17:21:40;99963.59;;;21.31;50.31
44825;BME280;30542;47.928;2.138;2024-02-21T17:26:40;99962.56;;;21.32;50.66
44825;BME280;30542;47.928;2.138;2024-02-21T17:31:41;99944.91;;;21.26;51.07
44825;BME280;30542;47.928;2.138;2024-02-21T17:36:41;99943.81;;;21.32;50.93
44825;BME280;30542;47.928;2.138;2024-02-21T17:41:42;99938.75;;;21.25;51.38
44825;BME280;30542;47.928;2.138;2024-02-21T17:46:42;99928.78;;;21.31;51.53
44825;BME280;30542;47.928;2.138;2024-02-21T17:51:42;99920.72;;;21.31;51.67
44825;BME280;30542;47.928;2.138;2024-02-21T17:56:43;99914.88;;;21.29;51.81
44825;BME280;30542;47.928;2.138;2024-02-21T18:01:43;99883.34;;;21.21;51.53
44825;BME280;30542;47.928;2.138;2024-02-21T18:06:44;99899.88;;;21.28;51.97
44825;BME280;30542;47.928;2.138;2024-02-21T18:11:45;99889.44;;;21.26;51.74
44825;BME280;30542;47.928;2.138;2024-02-21T18:16:45;99877.44;;;21.24;51.73
44825;BME280;30542;47.928;2.138;2024-02-21T18:21:46;99876.41;;;21.20;51.94
44825;BME280;30542;47.928;2.138;2024-02-21T18:26:46;99874.22;;;21.22;51.84
44825;BME280;30542;47.928;2.138;2024-02-21T18:31:48;99866.19;;;21.22;51.73
44825;BME280;30542;47.928;2.138;2024-02-21T18:36:49;99855.75;;;21.20;51.86
44825;BME280;30542;47.928;2.138;2024-02-21T18:41:49;99872.94;;;21.19;51.50
44825;BME280;30542;47.928;2.138;2024-02-21T18:46:49;99844.28;;;21.15;51.71
44825;BME280;30542;47.928;2.138;2024-02-21T18:51:50;99850.47;;;21.15;51.69
44825;BME280;30542;47.928;2.138;2024-02-21T18:56:50;99857.69;;;21.15;51.70
44825;BME280;30542;47.928;2.138;2024-02-21T19:01:51;99840.03;;;21.14;51.63
44825;BME280;30542;47.928;2.138;2024-02-21T19:06:51;99828.50;;;21.13;51.64
44825;BME280;30542;47.928;2.138;2024-02-21T19:11:52;99827.72;;;21.13;51.95
44825;BME280;30542;47.928;2.138;2024-02-21T19:16:52;99821.28;;;21.14;51.68
44825;BME280;30542;47.928;2.138;2024-02-21T19:21:53;99808.97;;;21.13;51.61
44825;BME280;30542;47.928;2.138;2024-02-21T19:26:53;99810.56;;;21.14;51.61
44825;BME280;30542;47.928;2.138;2024-02-21T19:31:53;99798.56;;;21.11;51.89
44825;BME280;30542;47.928;2.138;2024-02-21T19:36:53;99786.75;;;21.12;51.64
44825;BME280;30542;47.928;2.138;2024-02-21T19:41:54;99790.22;;;21.13;51.86
44825;BME280;30542;47.928;2.138;2024-02-21T19:46:54;99782.19;;;21.13;51.60
44825;BME280;30542;47.928;2.138;2024-02-21T19:51:55;99769.88;;;21.12;51.73
44825;BME280;30542;47.928;2.138;2024-02-21T19:56:55;99763.75;;;21.11;51.62
44825;BME280;30542;47.928;2.138;2024-02-21T20:01:56;99755.72;;;21.11;51.59
44825;BME280;30542;47.928;2.138;2024-02-21T20:06:58;99744.16;;;21.10;51.44
44825;BME280;30542;47.928;2.138;2024-02-21T20:11:59;99743.38;;;21.10;51.70
44825;BME280;30542;47.928;2.138;2024-02-21T20:17:01;99748.72;;;21.10;51.70
44825;BME280;30542;47.928;2.138;2024-02-21T20:22:02;99737.00;;;21.06;51.63
44825;BME280;30542;47.928;2.138;2024-02-21T20:27:02;99744.47;;;21.09;51.76
44825;BME280;30542;47.928;2.138;2024-02-21T20:32:03;99726.81;;;21.08;51.50
44825;BME280;30542;47.928;2.138;2024-02-21T20:37:03;99711.84;;;21.07;51.41
44825;BME280;30542;47.928;2.138;2024-02-21T20:42:11;99707.28;;;21.07;51.48
44825;BME280;30542;47.928;2.138;2024-02-21T20:47:11;99694.94;;;21.06;51.65
44825;BME280;30542;47.928;2.138;2024-02-21T20:52:11;99696.56;;;21.07;51.50
44825;BME280;30542;47.928;2.138;2024-02-21T20:57:12;99669.78;;;21.07;51.36
44825;BME280;30542;47.928;2.138;2024-02-21T21:02:12;99667.13;;;21.07;51.29
44825;BME280;30542;47.928;2.138;2024-02-21T21:07:12;99660.66;;;21.08;51.45
44825;BME280;30542;47.928;2.138;2024-02-21T21:12:13;99651.03;;;21.07;51.22
44825;BME280;30542;47.928;2.138;2024-02-21T21:17:13;99645.69;;;21.07;51.41
44825;BME280;30542;47.928;2.138;2024-02-21T21:22:13;99637.66;;;21.07;51.45
44825;BME280;30542;47.928;2.138;2024-02-21T21:27:14;99634.69;;;21.09;51.46
44825;BME280;30542;47.928;2.138;2024-02-21T21:32:16;99630.41;;;21.08;51.89
44825;BME280;30542;47.928;2.138;2024-02-21T21:37:16;99616.25;;;21.07;52.10
44825;BME280;30542;47.928;2.138;2024-02-21T21:42:17;99601.22;;;21.06;52.34
44825;BME280;30542;47.928;2.138;2024-02-21T21:47:17;99581.63;;;20.92;52.52
44825;BME280;30542;47.928;2.138;2024-02-21T21:52:19;99582.63;;;20.96;52.63
44825;BME280;30542;47.928;2.138;2024-02-21T21:57:19;99583.44;;;20.97;52.48
44825;BME280;30542;47.928;2.138;2024-02-21T22:02:19;99567.94;;;20.94;52.57
44825;BME280;30542;47.928;2.138;2024-02-21T22:07:25;99572.00;;;20.91;52.82
44825;BME280;30542;47.928;2.138;2024-02-21T22:12:25;99567.53;;;20.87;52.74
44825;BME280;30542;47.928;2.138;2024-02-21T22:17:26;99552.25;;;20.87;52.81
44825;BME280;30542;47.928;2.138;2024-02-21T22:22:26;99544.28;;;20.82;52.89
44825;BME280;30542;47.928;2.138;2024-02-21T22:27:26;99525.03;;;20.80;52.89
44825;BME280;30542;47.928;2.138;2024-02-21T22:32:27;99524.31;;;20.74;52.88
44825;BME280;30542;47.928;2.138;2024-02-21T22:37:28;99524.81;;;20.76;52.81
44825;BME280;30542;47.928;2.138;2024-02-21T22:42:28;99510.16;;;20.74;53.09
44825;BME280;30542;47.928;2.138;2024-02-21T22:47:28;99499.72;;;20.72;52.81
44825;BME280;30542;47.928;2.138;2024-02-21T22:52:29;99490.41;;;20.70;52.80
44825;BME280;30542;47.928;2.138;2024-02-21T22:57:29;99485.09;;;20.65;52.67
44825;BME280;30542;47.928;2.138;2024-02-21T23:02:29;99482.41;;;20.65;52.91
44825;BME280;30542;47.928;2.138;2024-02-21T23:07:31;99474.16;;;20.61;52.67
44825;BME280;30542;47.928;2.138;2024-02-21T23:12:31;99469.97;;;20.55;52.79
44825;BME280;30542;47.928;2.138;2024-02-21T23:17:34;99458.19;;;20.56;52.78
44825;BME280;30542;47.928;2.138;2024-02-21T23:22:34;99443.00;;;20.51;52.82
44825;BME280;30542;47.928;2.138;2024-02-21T23:27:35;99436.06;;;20.50;53.26
44825;BME280;30542;47.928;2.138;2024-02-21T23:32:35;99432.88;;;20.48;52.88
44825;BME280;30542;47.928;2.138;2024-02-21T23:37:36;99412.63;;;20.42;53.06
44825;BME280;30542;47.928;2.138;2024-02-21T23:42:37;99406.47;;;20.42;53.08
44825;BME280;30542;47.928;2.138;2024-02-21T23:47:38;99384.84;;;20.38;53.12
44825;BME280;30542;47.928;2.138;2024-02-21T23:52:39;99380.06;;;20.35;53.38
44825;BME280;30542;47.928;2.138;2024-02-21T23:57:39;99364.03;;;20.35;53.41
